createdAt,value
2017-10-05T00:00:14.630Z,21.99
2017-10-05T00:01:23.322Z,21.98
2017-10-05T00:02:32.662Z,21.98
2017-10-05T00:03:41.994Z,22.02
2017-10-05T00:04:51.327Z,21.96
2017-10-05T00:06:00.983Z,21.96
2017-10-05T00:07:09.679Z,21.99
2017-10-05T00:08:18.376Z,21.98
2017-10-05T00:09:27.072Z,21.98
2017-10-05T00:10:36.082Z,21.96
2017-10-05T00:11:44.780Z,21.93
2017-10-05T00:12:53.819Z,21.99
2017-10-05T00:14:03.471Z,21.99
2017-10-05T00:15:12.488Z,21.96
2017-10-05T00:16:22.466Z,22
2017-10-05T00:17:31.485Z,21.96
2017-10-05T00:18:40.493Z,21.96
2017-10-05T00:19:49.502Z,21.96
2017-10-05T00:20:58.194Z,21.93
2017-10-05T00:22:07.525Z,21.98
2017-10-05T00:23:16.220Z,21.92
2017-10-05T00:24:25.556Z,21.96
2017-10-05T00:25:34.888Z,21.93
2017-10-05T00:26:44.544Z,21.98
2017-10-05T00:27:53.551Z,21.89
2017-10-05T00:29:02.890Z,21.95
2017-10-05T00:30:31.739Z,21.91
2017-10-05T00:31:41.389Z,21.92
2017-10-05T00:32:50.728Z,21.89
2017-10-05T00:34:00.079Z,21.88
2017-10-05T00:35:09.416Z,21.92
2017-10-05T00:36:18.745Z,21.92
2017-10-05T00:37:28.717Z,21.89
2017-10-05T00:38:38.371Z,21.92
2017-10-05T00:39:47.383Z,21.92
2017-10-05T00:40:56.717Z,21.88
2017-10-05T00:42:05.730Z,21.89
2017-10-05T00:43:15.381Z,21.88
2017-10-05T00:44:24.716Z,21.83
2017-10-05T00:45:34.070Z,21.88
2017-10-05T00:46:44.041Z,21.89
2017-10-05T00:47:52.737Z,21.83
2017-10-05T00:49:01.747Z,21.89
2017-10-05T00:50:10.765Z,21.89
2017-10-05T00:51:19.779Z,21.83
2017-10-05T00:52:28.471Z,21.91
2017-10-05T00:53:37.162Z,21.95
2017-10-05T00:54:46.178Z,21.89
2017-10-05T00:55:55.510Z,21.92
2017-10-05T00:57:04.209Z,21.92
2017-10-05T00:58:13.542Z,21.85
2017-10-05T00:59:22.560Z,21.88
2017-10-05T01:00:31.902Z,21.89
2017-10-05T01:01:41.234Z,21.91
2017-10-05T01:02:50.249Z,21.82
2017-10-05T01:03:58.951Z,21.76
2017-10-05T01:05:08.937Z,21.79
2017-10-05T01:06:17.950Z,21.82
2017-10-05T01:07:26.962Z,21.8
2017-10-05T01:08:35.973Z,21.79
2017-10-05T01:09:44.989Z,21.82
2017-10-05T01:10:54.652Z,21.82
2017-10-05T01:12:03.344Z,21.8
2017-10-05T01:13:13.024Z,21.79
2017-10-05T01:14:22.685Z,21.76
2017-10-05T01:15:31.379Z,21.85
2017-10-05T01:16:40.711Z,21.76
2017-10-05T01:17:50.056Z,21.79
2017-10-05T01:18:59.705Z,21.77
2017-10-05T01:20:09.040Z,21.77
2017-10-05T01:21:18.374Z,21.8
2017-10-05T01:22:28.024Z,21.82
2017-10-05T01:23:37.682Z,21.8
2017-10-05T01:24:46.374Z,21.75
2017-10-05T01:25:55.705Z,21.73
2017-10-05T01:27:04.724Z,21.75
2017-10-05T01:28:13.745Z,21.73
2017-10-05T01:29:23.399Z,21.73
2017-10-05T01:30:32.415Z,21.79
2017-10-05T01:31:41.427Z,21.72
2017-10-05T01:32:50.124Z,21.75
2017-10-05T01:33:59.141Z,21.75
2017-10-05T01:35:08.473Z,21.73
2017-10-05T01:36:17.486Z,21.75
2017-10-05T01:37:27.136Z,21.76
2017-10-05T01:38:36.475Z,21.73
2017-10-05T01:39:45.810Z,21.73
2017-10-05T01:40:55.465Z,21.75
2017-10-05T01:42:05.437Z,21.66
2017-10-05T01:43:15.092Z,21.76
2017-10-05T01:44:23.786Z,21.69
2017-10-05T01:45:32.480Z,21.7
2017-10-05T01:46:41.496Z,21.72
2017-10-05T01:47:51.156Z,21.75
2017-10-05T01:49:01.127Z,21.72
2017-10-05T01:50:10.149Z,21.66
2017-10-05T01:51:20.130Z,21.66
2017-10-05T01:52:29.146Z,21.77
2017-10-05T01:53:38.161Z,21.69
2017-10-05T01:54:47.522Z,21.69
2017-10-05T01:55:56.853Z,21.72
2017-10-05T01:57:05.548Z,21.69
2017-10-05T01:58:14.239Z,21.67
2017-10-05T01:59:23.573Z,21.79
2017-10-05T02:00:32.591Z,21.77
2017-10-05T02:01:41.611Z,21.67
2017-10-05T02:02:50.627Z,21.66
2017-10-05T02:03:59.951Z,21.73
2017-10-05T02:05:09.606Z,21.73
2017-10-05T02:06:18.934Z,21.62
2017-10-05T02:07:28.268Z,21.77
2017-10-05T02:08:37.929Z,21.64
2017-10-05T02:09:47.267Z,21.58
2017-10-05T02:10:56.600Z,21.58
2017-10-05T02:12:05.617Z,21.69
2017-10-05T02:13:14.945Z,21.66
2017-10-05T02:14:24.271Z,21.66
2017-10-05T02:15:32.965Z,21.62
2017-10-05T02:16:41.660Z,21.6
2017-10-05T02:17:50.998Z,21.55
2017-10-05T02:19:00.327Z,21.62
2017-10-05T02:20:09.663Z,21.6
2017-10-05T02:21:18.358Z,21.6
2017-10-05T02:22:27.695Z,21.6
2017-10-05T02:23:37.033Z,21.6
2017-10-05T02:24:45.726Z,21.6
2017-10-05T02:25:55.060Z,21.6
2017-10-05T02:27:04.072Z,21.58
2017-10-05T02:28:12.765Z,21.6
2017-10-05T02:29:21.460Z,21.57
2017-10-05T02:30:30.153Z,21.58
2017-10-05T02:31:38.846Z,21.62
2017-10-05T02:32:48.819Z,21.61
2017-10-05T02:33:57.516Z,21.62
2017-10-05T02:35:07.172Z,21.62
2017-10-05T02:36:16.184Z,21.62
2017-10-05T02:37:25.216Z,21.62
2017-10-05T02:38:34.548Z,21.58
2017-10-05T02:39:43.240Z,21.62
2017-10-05T02:40:52.572Z,21.58
2017-10-05T02:42:01.588Z,21.57
2017-10-05T02:43:10.595Z,21.58
2017-10-05T02:44:20.250Z,21.61
2017-10-05T02:45:29.904Z,21.6
2017-10-05T02:46:39.240Z,21.52
2017-10-05T02:47:48.576Z,21.57
2017-10-05T02:48:57.910Z,21.51
2017-10-05T02:50:06.924Z,21.57
2017-10-05T02:51:16.893Z,21.52
2017-10-05T02:52:26.231Z,21.55
2017-10-05T02:53:34.927Z,21.58
2017-10-05T02:54:44.586Z,21.51
2017-10-05T02:55:53.601Z,21.57
2017-10-05T02:57:02.618Z,21.57
2017-10-05T02:58:11.951Z,21.54
2017-10-05T02:59:21.276Z,21.51
2017-10-05T03:00:30.605Z,21.48
2017-10-05T03:01:39.301Z,21.54
2017-10-05T03:02:48.319Z,21.5
2017-10-05T03:03:57.013Z,21.43
2017-10-05T03:05:06.033Z,21.52
2017-10-05T03:06:15.049Z,21.52
2017-10-05T03:07:24.063Z,21.51
2017-10-05T03:08:33.399Z,21.5
2017-10-05T03:09:42.729Z,21.48
2017-10-05T03:10:51.741Z,21.48
2017-10-05T03:12:01.075Z,21.52
2017-10-05T03:13:09.767Z,21.4
2017-10-05T03:14:18.790Z,21.5
2017-10-05T03:15:27.482Z,21.52
2017-10-05T03:16:36.502Z,21.5
2017-10-05T03:17:45.194Z,21.5
2017-10-05T03:18:54.210Z,21.46
2017-10-05T03:20:03.224Z,21.45
2017-10-05T03:21:11.917Z,21.51
2017-10-05T03:22:20.931Z,21.46
2017-10-05T03:23:29.945Z,21.46
2017-10-05T03:24:39.917Z,21.5
2017-10-05T03:25:48.927Z,21.45
2017-10-05T03:26:57.946Z,21.4
2017-10-05T03:28:06.960Z,21.45
2017-10-05T03:29:16.928Z,21.4
2017-10-05T03:30:26.263Z,21.42
2017-10-05T03:31:35.277Z,21.43
2017-10-05T03:32:44.612Z,21.36
2017-10-05T03:33:53.631Z,21.43
2017-10-05T03:35:02.643Z,21.39
2017-10-05T03:36:12.303Z,21.37
2017-10-05T03:37:21.326Z,21.39
2017-10-05T03:38:30.982Z,21.4
2017-10-05T03:39:40.986Z,21.45
2017-10-05T03:40:50.324Z,21.42
2017-10-05T03:41:59.661Z,21.45
2017-10-05T03:43:08.993Z,21.43
2017-10-05T03:44:18.329Z,21.4
2017-10-05T03:45:27.656Z,21.45
2017-10-05T03:46:37.311Z,21.43
2017-10-05T03:47:46.001Z,21.43
2017-10-05T03:48:55.651Z,21.43
2017-10-05T03:50:04.997Z,21.37
2017-10-05T03:51:14.338Z,21.4
2017-10-05T03:52:23.678Z,21.46
2017-10-05T03:53:33.013Z,21.45
2017-10-05T03:54:42.351Z,21.4
2017-10-05T03:55:51.365Z,21.46
2017-10-05T03:57:00.384Z,21.4
2017-10-05T03:58:09.404Z,21.42
2017-10-05T03:59:18.737Z,21.48
2017-10-05T04:00:28.386Z,21.42
2017-10-05T04:01:37.403Z,21.4
2017-10-05T04:02:47.701Z,21.36
2017-10-05T04:03:57.356Z,21.45
2017-10-05T04:05:06.695Z,21.4
2017-10-05T04:06:15.399Z,21.42
2017-10-05T04:07:24.418Z,21.39
2017-10-05T04:08:33.433Z,21.37
2017-10-05T04:09:42.445Z,21.4
2017-10-05T04:10:51.461Z,21.4
2017-10-05T04:12:00.158Z,21.46
2017-10-05T04:13:09.172Z,21.45
2017-10-05T04:14:18.505Z,21.45
2017-10-05T04:15:27.518Z,21.46
2017-10-05T04:16:36.210Z,21.46
2017-10-05T04:17:45.544Z,21.45
2017-10-05T04:18:54.560Z,21.45
2017-10-05T04:20:03.891Z,21.52
2017-10-05T04:21:12.907Z,21.45
2017-10-05T04:22:21.921Z,21.51
2017-10-05T04:23:31.895Z,21.51
2017-10-05T04:24:41.225Z,21.5
2017-10-05T04:25:49.918Z,21.46
2017-10-05T04:26:58.611Z,21.51
2017-10-05T04:28:07.951Z,21.51
2017-10-05T04:29:16.966Z,21.46
2017-10-05T04:30:25.983Z,21.54
2017-10-05T04:31:34.997Z,21.52
2017-10-05T04:32:44.007Z,21.58
2017-10-05T04:33:53.021Z,21.5
2017-10-05T04:35:01.718Z,21.5
2017-10-05T04:36:10.729Z,21.54
2017-10-05T04:37:20.372Z,21.5
2017-10-05T04:38:29.713Z,21.52
2017-10-05T04:39:39.056Z,21.54
2017-10-05T04:40:48.707Z,21.57
2017-10-05T04:41:57.722Z,21.6
2017-10-05T04:43:06.419Z,21.67
2017-10-05T04:44:15.115Z,21.58
2017-10-05T04:45:24.445Z,21.58
2017-10-05T04:46:33.139Z,21.64
2017-10-05T04:47:42.468Z,21.6
2017-10-05T04:48:51.802Z,21.58
2017-10-05T04:50:00.816Z,21.62
2017-10-05T04:51:09.835Z,21.66
2017-10-05T04:52:19.490Z,21.64
2017-10-05T04:53:28.503Z,21.6
2017-10-05T04:54:38.156Z,21.61
2017-10-05T04:55:47.174Z,21.64
2017-10-05T04:56:56.507Z,21.6
2017-10-05T04:58:05.523Z,21.55
2017-10-05T04:59:14.539Z,21.58
2017-10-05T05:00:23.867Z,21.62
2017-10-05T05:01:33.195Z,21.67
2017-10-05T05:02:42.526Z,21.57
2017-10-05T05:03:51.542Z,21.61
2017-10-05T05:05:00.555Z,21.61
2017-10-05T05:06:09.893Z,21.6
2017-10-05T05:07:18.909Z,21.72
2017-10-05T05:08:27.604Z,21.62
2017-10-05T05:09:36.941Z,21.72
2017-10-05T05:10:46.273Z,21.67
2017-10-05T05:11:55.292Z,21.7
2017-10-05T05:13:04.304Z,21.66
2017-10-05T05:14:13.961Z,21.64
2017-10-05T05:15:22.658Z,21.69
2017-10-05T05:16:31.667Z,21.67
2017-10-05T05:17:41.324Z,21.69
2017-10-05T05:18:50.651Z,21.58
2017-10-05T05:19:59.990Z,21.66
2017-10-05T05:21:09.004Z,21.66
2017-10-05T05:22:18.019Z,21.64
2017-10-05T05:23:26.711Z,21.61
2017-10-05T05:24:35.409Z,21.57
2017-10-05T05:25:44.743Z,21.62
2017-10-05T05:26:54.391Z,21.58
2017-10-05T05:28:03.090Z,21.69
2017-10-05T05:29:12.099Z,21.64
2017-10-05T05:30:20.792Z,21.61
2017-10-05T05:31:30.122Z,21.66
2017-10-05T05:32:39.465Z,21.6
2017-10-05T05:33:48.472Z,21.61
2017-10-05T05:34:57.486Z,21.58
2017-10-05T05:36:06.494Z,21.58
2017-10-05T05:37:15.825Z,21.64
2017-10-05T05:38:25.156Z,21.57
2017-10-05T05:39:34.176Z,21.57
2017-10-05T05:40:42.869Z,21.69
2017-10-05T05:41:52.533Z,21.58
2017-10-05T05:43:01.227Z,21.64
2017-10-05T05:44:10.559Z,21.62
2017-10-05T05:45:19.892Z,21.6
2017-10-05T05:46:29.556Z,21.67
2017-10-05T05:47:38.569Z,21.69
2017-10-05T05:48:47.260Z,21.57
2017-10-05T05:49:55.952Z,21.62
2017-10-05T05:51:05.621Z,21.64
2017-10-05T05:52:14.629Z,21.58
2017-10-05T05:53:23.647Z,21.62
2017-10-05T05:54:32.662Z,21.66
2017-10-05T05:55:42.003Z,21.64
2017-10-05T05:56:51.653Z,21.61
2017-10-05T05:58:00.661Z,21.69
2017-10-05T05:59:10.325Z,21.66
2017-10-05T06:00:19.981Z,21.69
2017-10-05T06:01:28.994Z,21.7
2017-10-05T06:02:38.326Z,21.66
2017-10-05T06:03:47.018Z,21.66
2017-10-05T06:04:56.355Z,21.69
2017-10-05T06:06:05.364Z,21.67
2017-10-05T06:07:14.379Z,21.73
2017-10-05T06:08:23.708Z,21.67
2017-10-05T06:09:32.404Z,21.73
2017-10-05T06:10:41.736Z,21.73
2017-10-05T06:11:50.427Z,21.76
2017-10-05T06:13:00.082Z,21.69
2017-10-05T06:14:10.092Z,21.73
2017-10-05T06:15:19.428Z,21.72
2017-10-05T06:16:28.437Z,21.72
2017-10-05T06:17:37.769Z,21.73
2017-10-05T06:18:46.799Z,21.73
2017-10-05T06:19:56.134Z,21.69
2017-10-05T06:21:05.794Z,21.67
2017-10-05T06:22:14.810Z,21.7
2017-10-05T06:23:24.464Z,21.69
2017-10-05T06:24:33.518Z,21.66
2017-10-05T06:25:42.212Z,21.77
2017-10-05T06:26:50.907Z,21.66
2017-10-05T06:27:59.932Z,21.75
2017-10-05T06:29:08.945Z,21.7
2017-10-05T06:30:18.284Z,21.73
2017-10-05T06:31:27.624Z,21.75
2017-10-05T06:32:36.957Z,21.73
2017-10-05T06:33:45.973Z,21.72
2017-10-05T06:34:54.671Z,21.73
2017-10-05T06:36:03.374Z,21.76
2017-10-05T06:37:12.071Z,21.75
2017-10-05T06:38:21.721Z,21.66
2017-10-05T06:39:31.052Z,21.72
2017-10-05T06:40:40.059Z,21.75
2017-10-05T06:41:49.391Z,21.73
2017-10-05T06:42:58.087Z,21.73
2017-10-05T06:44:07.102Z,21.73
2017-10-05T06:45:16.758Z,21.7
2017-10-05T06:46:26.102Z,21.72
2017-10-05T06:47:35.433Z,21.75
2017-10-05T06:48:44.129Z,21.73
2017-10-05T06:49:53.456Z,21.76
2017-10-05T06:51:02.470Z,21.76
2017-10-05T06:52:11.484Z,21.79
2017-10-05T06:53:20.493Z,21.77
2017-10-05T06:54:30.149Z,21.69
2017-10-05T06:55:39.482Z,21.75
2017-10-05T06:56:48.496Z,21.7
2017-10-05T06:57:57.513Z,21.76
2017-10-05T06:59:06.531Z,21.72
2017-10-05T07:00:15.546Z,21.69
2017-10-05T07:01:24.556Z,21.73
2017-10-05T07:02:33.569Z,21.69
2017-10-05T07:03:42.899Z,21.72
2017-10-05T07:04:52.555Z,21.73
2017-10-05T07:06:01.572Z,21.7
2017-10-05T07:07:11.223Z,21.73
2017-10-05T07:08:20.556Z,21.76
2017-10-05T07:09:29.573Z,21.72
2017-10-05T07:10:38.586Z,21.72
2017-10-05T07:11:47.281Z,21.79
2017-10-05T07:12:56.936Z,21.75
2017-10-05T07:14:05.955Z,21.73
2017-10-05T07:15:14.649Z,21.79
2017-10-05T07:16:23.985Z,21.8
2017-10-05T07:17:32.681Z,21.79
2017-10-05T07:18:41.696Z,21.79
2017-10-05T07:19:51.349Z,21.82
2017-10-05T07:21:00.369Z,21.79
2017-10-05T07:22:09.381Z,21.8
2017-10-05T07:23:18.394Z,21.83
2017-10-05T07:24:28.073Z,21.85
2017-10-05T07:25:37.108Z,21.8
2017-10-05T07:26:46.118Z,21.88
2017-10-05T07:27:54.811Z,21.82
2017-10-05T07:29:03.821Z,21.88
2017-10-05T07:30:13.481Z,21.8
2017-10-05T07:31:23.138Z,21.77
2017-10-05T07:32:32.154Z,21.8
2017-10-05T07:33:41.166Z,21.85
2017-10-05T07:34:50.494Z,21.83
2017-10-05T07:35:59.185Z,21.88
2017-10-05T07:37:08.195Z,21.89
2017-10-05T07:38:17.208Z,21.79
2017-10-05T07:39:26.542Z,21.83
2017-10-05T07:40:35.554Z,21.91
2017-10-05T07:41:45.205Z,21.88
2017-10-05T07:42:53.899Z,21.8
2017-10-05T07:44:02.912Z,21.85
2017-10-05T07:45:12.246Z,21.8
2017-10-05T07:46:21.588Z,21.91
2017-10-05T07:47:30.284Z,21.89
2017-10-05T07:48:39.300Z,21.83
2017-10-05T07:49:48.312Z,21.93
2017-10-05T07:50:57.325Z,21.83
2017-10-05T07:52:06.337Z,21.89
2017-10-05T07:53:15.672Z,21.89
2017-10-05T07:54:24.365Z,21.92
2017-10-05T07:55:34.658Z,21.95
2017-10-05T07:56:43.680Z,21.82
2017-10-05T07:57:52.687Z,21.92
2017-10-05T07:59:01.704Z,21.91
2017-10-05T08:00:10.718Z,21.91
2017-10-05T08:01:19.734Z,21.88
2017-10-05T08:02:29.466Z,21.91
2017-10-05T08:03:38.485Z,21.92
2017-10-05T08:04:47.177Z,21.95
2017-10-05T08:05:56.194Z,21.96
2017-10-05T08:07:04.894Z,21.91
2017-10-05T08:08:13.593Z,21.95
2017-10-05T08:09:22.615Z,21.96
2017-10-05T08:10:31.636Z,21.95
2017-10-05T08:11:41.291Z,21.95
2017-10-05T08:12:50.309Z,21.92
2017-10-05T08:13:59.008Z,21.98
2017-10-05T08:15:08.345Z,21.98
2017-10-05T08:16:18.005Z,21.92
2017-10-05T08:17:27.019Z,22
2017-10-05T08:18:36.356Z,21.95
2017-10-05T08:19:45.365Z,21.99
2017-10-05T08:20:54.385Z,21.93
2017-10-05T08:22:03.087Z,21.95
2017-10-05T08:23:12.416Z,21.98
2017-10-05T08:24:21.430Z,21.95
2017-10-05T08:25:30.791Z,21.99
2017-10-05T08:26:39.807Z,21.95
2017-10-05T08:27:49.137Z,21.93
2017-10-05T08:28:58.470Z,21.96
2017-10-05T08:30:08.124Z,21.96
2017-10-05T08:31:17.457Z,21.93
2017-10-05T08:32:26.788Z,21.99
2017-10-05T08:33:36.115Z,21.96
2017-10-05T08:34:45.130Z,21.99
2017-10-05T08:35:53.825Z,21.95
2017-10-05T08:37:03.156Z,21.98
2017-10-05T08:38:12.169Z,21.95
2017-10-05T08:39:21.184Z,21.93
2017-10-05T08:40:30.201Z,21.92
2017-10-05T08:41:39.530Z,21.98
2017-10-05T08:42:48.582Z,21.98
2017-10-05T08:43:57.917Z,21.99
2017-10-05T08:45:06.936Z,21.95
2017-10-05T08:46:16.270Z,21.95
2017-10-05T08:47:25.925Z,21.95
2017-10-05T08:48:35.574Z,21.98
2017-10-05T08:49:44.266Z,21.96
2017-10-05T08:50:53.604Z,21.99
2017-10-05T08:52:02.621Z,21.95
2017-10-05T08:53:11.640Z,21.99
2017-10-05T08:54:21.292Z,21.93
2017-10-05T08:55:30.942Z,21.95
2017-10-05T08:56:40.594Z,21.96
2017-10-05T08:57:49.934Z,22
2017-10-05T08:58:59.271Z,21.98
2017-10-05T09:00:07.968Z,21.98
2017-10-05T09:01:17.299Z,21.99
2017-10-05T09:02:25.996Z,21.98
2017-10-05T09:03:35.327Z,21.98
2017-10-05T09:04:44.654Z,21.95
2017-10-05T09:05:53.665Z,22
2017-10-05T09:07:02.367Z,21.99
2017-10-05T09:08:11.385Z,22
2017-10-05T09:09:20.074Z,22
2017-10-05T09:10:29.403Z,21.99
2017-10-05T09:11:39.060Z,22
2017-10-05T09:12:48.078Z,22.02
2017-10-05T09:13:57.414Z,21.96
2017-10-05T09:15:06.432Z,21.96
2017-10-05T09:16:15.759Z,22.06
2017-10-05T09:17:24.794Z,21.98
2017-10-05T09:18:33.473Z,22
2017-10-05T09:19:42.486Z,21.98
2017-10-05T09:20:51.188Z,22.06
2017-10-05T09:22:00.522Z,21.99
2017-10-05T09:23:09.856Z,21.96
2017-10-05T09:24:18.870Z,21.99
2017-10-05T09:25:27.562Z,22.02
2017-10-05T09:26:37.214Z,22.02
2017-10-05T09:27:45.908Z,21.93
2017-10-05T09:28:54.928Z,21.95
2017-10-05T09:30:03.623Z,22.02
2017-10-05T09:31:12.328Z,22.02
2017-10-05T09:32:21.026Z,22.02
2017-10-05T09:33:30.364Z,21.98
2017-10-05T09:34:39.377Z,21.95
2017-10-05T09:35:48.717Z,21.99
2017-10-05T09:36:58.053Z,22.02
2017-10-05T09:38:07.390Z,22.08
2017-10-05T09:39:16.727Z,22.06
2017-10-05T09:40:25.740Z,22.06
2017-10-05T09:41:35.076Z,22.02
2017-10-05T09:42:44.407Z,22.13
2017-10-05T09:43:53.424Z,22
2017-10-05T09:45:02.759Z,22.07
2017-10-05T09:46:11.451Z,22.06
2017-10-05T09:47:20.778Z,21.98
2017-10-05T09:48:29.790Z,22.08
2017-10-05T09:49:38.486Z,22.06
2017-10-05T09:50:47.820Z,21.98
2017-10-05T09:51:57.152Z,22.07
2017-10-05T09:53:05.845Z,22.07
2017-10-05T09:54:14.541Z,21.99
2017-10-05T09:55:23.233Z,21.95
2017-10-05T09:56:31.937Z,22.04
2017-10-05T09:57:41.592Z,22.07
2017-10-05T09:58:50.608Z,21.98
2017-10-05T09:59:59.619Z,21.98
2017-10-05T10:01:08.635Z,22.04
2017-10-05T10:02:17.646Z,22.07
2017-10-05T10:03:26.340Z,22.08
2017-10-05T10:04:35.675Z,22.06
2017-10-05T10:05:45.004Z,22.04
2017-10-05T10:06:54.014Z,21.96
2017-10-05T10:08:03.339Z,21.99
2017-10-05T10:09:12.038Z,22.06
2017-10-05T10:10:21.049Z,22
2017-10-05T10:11:31.022Z,22.08
2017-10-05T10:12:40.349Z,21.99
2017-10-05T10:13:49.680Z,21.99
2017-10-05T10:14:59.095Z,22.04
2017-10-05T10:16:08.116Z,22.08
2017-10-05T10:17:17.124Z,22.1
2017-10-05T10:18:26.460Z,22.1
2017-10-05T10:19:35.477Z,22.07
2017-10-05T10:20:44.805Z,22.06
2017-10-05T10:21:53.496Z,22.1
2017-10-05T10:23:03.141Z,22.11
2017-10-05T10:24:12.152Z,22.11
2017-10-05T10:25:21.163Z,22.04
2017-10-05T10:26:30.493Z,22.06
2017-10-05T10:27:39.188Z,22.07
2017-10-05T10:28:48.548Z,22.13
2017-10-05T10:29:58.203Z,22.07
2017-10-05T10:31:07.542Z,22.08
2017-10-05T10:32:16.551Z,22.02
2017-10-05T10:33:25.245Z,22.04
2017-10-05T10:34:34.263Z,22.02
2017-10-05T10:35:43.278Z,22.1
2017-10-05T10:36:51.969Z,22.04
2017-10-05T10:38:00.982Z,22.08
2017-10-05T10:39:10.002Z,22.07
2017-10-05T10:40:19.062Z,22.07
2017-10-05T10:41:28.076Z,22.06
2017-10-05T10:42:36.769Z,22.13
2017-10-05T10:43:46.423Z,22.08
2017-10-05T10:44:55.116Z,22.07
2017-10-05T10:46:04.442Z,22.08
2017-10-05T10:47:13.772Z,22.13
2017-10-05T10:48:22.789Z,22.14
2017-10-05T10:49:31.481Z,22.11
2017-10-05T10:50:41.145Z,22.14
2017-10-05T10:51:49.837Z,22.13
2017-10-05T10:52:58.529Z,22.1
2017-10-05T10:54:07.226Z,22.07
2017-10-05T10:55:16.559Z,22.14
2017-10-05T10:56:25.569Z,22.14
2017-10-05T10:57:34.904Z,22.13
2017-10-05T10:58:43.918Z,22.17
2017-10-05T10:59:52.930Z,22.07
2017-10-05T11:01:02.589Z,22.17
2017-10-05T11:02:11.282Z,22.14
2017-10-05T11:03:20.293Z,22.18
2017-10-05T11:04:29.302Z,22.2
2017-10-05T11:05:37.995Z,22.2
2017-10-05T11:06:47.011Z,22.22
2017-10-05T11:07:56.026Z,22.25
2017-10-05T11:09:05.036Z,22.28
2017-10-05T11:10:14.050Z,22.25
2017-10-05T11:11:23.060Z,22.25
2017-10-05T11:12:32.074Z,22.25
2017-10-05T11:13:41.087Z,22.26
2017-10-05T11:14:50.098Z,22.3
2017-10-05T11:16:00.070Z,22.28
2017-10-05T11:17:09.407Z,22.28
2017-10-05T11:18:18.100Z,22.38
2017-10-05T11:19:26.793Z,22.36
2017-10-05T11:20:35.807Z,22.32
2017-10-05T11:21:44.828Z,22.35
2017-10-05T11:22:53.846Z,22.39
2017-10-05T11:24:03.180Z,22.39
2017-10-05T11:25:12.192Z,22.45
2017-10-05T11:26:21.854Z,22.47
2017-10-05T11:27:30.549Z,22.39
2017-10-05T11:28:39.876Z,22.48
2017-10-05T11:29:49.217Z,22.5
2017-10-05T11:30:58.236Z,22.54
2017-10-05T11:32:07.570Z,22.48
2017-10-05T11:33:16.264Z,22.53
2017-10-05T11:34:25.273Z,22.69
2017-10-05T11:35:34.304Z,22.81
2017-10-05T11:36:43.003Z,23
2017-10-05T11:37:52.328Z,23.28
2017-10-05T11:39:01.977Z,23.46
2017-10-05T11:40:11.637Z,23.4
2017-10-05T11:41:20.972Z,23.32
2017-10-05T11:42:30.310Z,23.36
2017-10-05T11:43:39.322Z,23.28
2017-10-05T11:44:48.338Z,23.23
2017-10-05T11:45:57.672Z,23.21
2017-10-05T11:47:06.370Z,23.24
2017-10-05T11:48:15.062Z,23.37
2017-10-05T11:49:24.079Z,23.28
2017-10-05T11:50:33.096Z,23.43
2017-10-05T11:51:42.432Z,23.56
2017-10-05T11:52:51.128Z,23.5
2017-10-05T11:54:00.141Z,23.58
2017-10-05T11:55:09.156Z,23.58
2017-10-05T11:56:18.169Z,23.66
2017-10-05T11:57:27.508Z,23.71
2017-10-05T11:58:36.841Z,23.73
2017-10-05T11:59:46.192Z,23.68
2017-10-05T12:00:55.525Z,23.63
2017-10-05T12:02:04.874Z,23.56
2017-10-05T12:03:14.207Z,23.59
2017-10-05T12:04:23.227Z,23.62
2017-10-05T12:05:32.241Z,23.54
2017-10-05T12:06:41.895Z,23.54
2017-10-05T12:07:50.591Z,23.37
2017-10-05T12:09:00.237Z,23.4
2017-10-05T12:10:08.932Z,23.41
2017-10-05T12:11:17.953Z,23.39
2017-10-05T12:12:27.286Z,23.36
2017-10-05T12:13:35.983Z,23.31
2017-10-05T12:14:44.682Z,23.21
2017-10-05T12:15:53.700Z,23.23
2017-10-05T12:17:02.720Z,23.24
2017-10-05T12:18:11.739Z,23.18
2017-10-05T12:19:20.750Z,23.15
2017-10-05T12:20:30.087Z,23.2
2017-10-05T12:21:39.116Z,23.12
2017-10-05T12:22:48.446Z,23.08
2017-10-05T12:23:57.144Z,23.05
2017-10-05T12:25:06.163Z,22.98
2017-10-05T12:26:15.180Z,22.96
2017-10-05T12:27:24.513Z,22.98
2017-10-05T12:28:33.533Z,23
2017-10-05T12:29:42.867Z,22.91
2017-10-05T12:30:51.565Z,22.93
2017-10-05T12:32:01.220Z,22.96
2017-10-05T12:33:10.233Z,22.96
2017-10-05T12:34:19.888Z,23.06
2017-10-05T12:35:29.224Z,23.03
2017-10-05T12:36:38.560Z,23.03
2017-10-05T12:37:47.578Z,23.03
2017-10-05T12:38:56.917Z,23.17
2017-10-05T12:40:05.615Z,23.13
2017-10-05T12:41:14.978Z,23.2
2017-10-05T12:42:23.677Z,23.2
2017-10-05T12:43:33.012Z,23.23
2017-10-05T12:44:41.707Z,23.25
2017-10-05T12:45:50.724Z,23.36
2017-10-05T12:47:00.061Z,23.36
2017-10-05T12:48:09.390Z,23.36
2017-10-05T12:49:18.721Z,23.43
2017-10-05T12:50:27.737Z,23.36
2017-10-05T12:51:36.757Z,23.37
2017-10-05T12:52:45.778Z,23.46
2017-10-05T12:53:55.109Z,23.5
2017-10-05T12:55:04.122Z,23.46
2017-10-05T12:56:13.139Z,23.46
2017-10-05T12:57:22.191Z,23.5
2017-10-05T12:58:31.207Z,23.51
2017-10-05T12:59:40.548Z,23.54
2017-10-05T13:00:49.236Z,23.54
2017-10-05T13:01:58.566Z,23.5
2017-10-05T13:03:07.904Z,23.54
2017-10-05T13:04:16.922Z,23.56
2017-10-05T13:05:25.937Z,23.48
2017-10-05T13:06:35.595Z,23.41
2017-10-05T13:07:44.926Z,23.44
2017-10-05T13:08:54.258Z,23.51
2017-10-05T13:10:03.272Z,23.41
2017-10-05T13:11:11.968Z,23.48
2017-10-05T13:12:21.617Z,23.41
2017-10-05T13:13:31.272Z,23.43
2017-10-05T13:14:39.967Z,23.44
2017-10-05T13:15:48.976Z,23.34
2017-10-05T13:16:57.993Z,23.37
2017-10-05T13:18:06.691Z,23.39
2017-10-05T13:19:15.710Z,23.34
2017-10-05T13:20:24.728Z,23.31
2017-10-05T13:21:33.747Z,23.24
2017-10-05T13:22:43.716Z,23.17
2017-10-05T13:23:53.049Z,23.24
2017-10-05T13:25:02.387Z,23.17
2017-10-05T13:26:11.085Z,23.2
2017-10-05T13:27:20.095Z,23.2
2017-10-05T13:28:29.429Z,23.15
2017-10-05T13:29:38.766Z,23.17
2017-10-05T13:30:47.784Z,23.18
2017-10-05T13:31:56.801Z,23.09
2017-10-05T13:33:05.814Z,23.13
2017-10-05T13:34:15.144Z,23.13
2017-10-05T13:35:24.165Z,23.21
2017-10-05T13:36:33.178Z,23.23
2017-10-05T13:37:42.188Z,23.25
2017-10-05T13:38:50.885Z,23.31
2017-10-05T13:39:59.580Z,23.31
2017-10-05T13:41:08.600Z,23.21
2017-10-05T13:42:17.936Z,23.27
2017-10-05T13:43:26.953Z,23.23
2017-10-05T13:44:35.650Z,23.24
2017-10-05T13:45:44.662Z,23.31
2017-10-05T13:46:53.359Z,23.27
2017-10-05T13:48:02.694Z,23.36
2017-10-05T13:49:12.350Z,23.39
2017-10-05T13:50:21.682Z,23.28
2017-10-05T13:51:31.338Z,23.27
2017-10-05T13:52:40.673Z,23.23
2017-10-05T13:53:50.000Z,23.27
2017-10-05T13:54:59.971Z,23.39
2017-10-05T13:56:08.987Z,23.23
2017-10-05T13:57:18.007Z,23.36
2017-10-05T13:58:27.338Z,23.32
2017-10-05T13:59:36.996Z,23.36
2017-10-05T14:00:46.008Z,23.32
2017-10-05T14:01:55.340Z,23.23
2017-10-05T14:03:04.357Z,23.31
2017-10-05T14:04:13.058Z,23.39
2017-10-05T14:05:21.754Z,23.34
2017-10-05T14:06:31.406Z,23.27
2017-10-05T14:07:40.418Z,23.28
2017-10-05T14:08:49.439Z,23.31
2017-10-05T14:09:59.098Z,23.23
2017-10-05T14:11:09.088Z,23.32
2017-10-05T14:12:18.424Z,23.28
2017-10-05T14:13:27.129Z,23.27
2017-10-05T14:14:36.145Z,23.24
2017-10-05T14:15:45.161Z,23.37
2017-10-05T14:16:54.180Z,23.36
2017-10-05T14:18:03.192Z,23.39
2017-10-05T14:19:12.205Z,23.27
2017-10-05T14:20:20.900Z,23.28
2017-10-05T14:21:29.915Z,23.27
2017-10-05T14:22:38.934Z,23.32
2017-10-05T14:23:48.271Z,23.37
2017-10-05T14:24:57.599Z,23.28
2017-10-05T14:26:06.612Z,23.37
2017-10-05T14:27:15.948Z,23.28
2017-10-05T14:28:24.644Z,23.27
2017-10-05T14:29:33.664Z,23.28
2017-10-05T14:30:43.317Z,23.39
2017-10-05T14:31:52.976Z,23.32
2017-10-05T14:33:01.987Z,23.25
2017-10-05T14:34:10.681Z,23.31
2017-10-05T14:35:19.695Z,23.34
2017-10-05T14:36:28.708Z,23.32
2017-10-05T14:37:37.717Z,23.36
2017-10-05T14:38:46.731Z,23.34
2017-10-05T14:39:56.072Z,23.34
2017-10-05T14:41:04.768Z,23.37
2017-10-05T14:42:14.738Z,23.28
2017-10-05T14:43:23.754Z,23.24
2017-10-05T14:44:32.770Z,23.27
2017-10-05T14:45:41.784Z,23.31
2017-10-05T14:46:50.484Z,23.24
2017-10-05T14:47:59.823Z,23.28
2017-10-05T14:49:08.837Z,23.31
2017-10-05T14:50:17.533Z,23.32
2017-10-05T14:51:26.225Z,23.34
2017-10-05T14:52:35.236Z,23.41
2017-10-05T14:53:44.254Z,23.32
2017-10-05T14:54:52.946Z,23.36